sensor_id;sensor_type;location;lat;lon;timestamp;P1;durP1;ratioP1;P2;durP2;ratioP2
3771;SDS011;1901;48.172;12.824;2024-02-26T00:00:00;22.42;;;8.88;;
3771;SDS011;1901;48.172;12.824;2024-02-26T00:02:26;18.83;;;8.18;;
3771;SDS011;1901;48.172;12.824;2024-02-26T00:04:51;20.30;;;9.60;;
3771;SDS011;1901;48.172;12.824;2024-02-26T00:07:16;22.13;;;9.63;;
3771;SDS011;1901;48.172;12.824;2024-02-26T00:09:41;21.83;;;9.87;;
3771;SDS011;1901;48.172;12.824;2024-02-26T00:12:06;22.20;;;9.80;;
3771;SDS011;1901;48.172;12.824;2024-02-26T00:14:31;19.03;;;9.40;;
3771;SDS011;1901;48.172;12.824;2024-02-26T00:16:57;20.55;;;9.18;;
3771;SDS011;1901;48.172;12.824;2024-02-26T00:19:22;22.65;;;10.38;;
3771;SDS011;1901;48.172;12.824;2024-02-26T00:21:47;21.50;;;9.47;;
3771;SDS011;1901;48.172;12.824;2024-02-26T00:24:12;24.80;;;9.47;;
3771;SDS011;1901;48.172;12.824;2024-02-26T00:26:37;21.43;;;9.37;;
3771;SDS011;1901;48.172;12.824;2024-02-26T00:29:02;25.53;;;10.33;;
3771;SDS011;1901;48.172;12.824;2024-02-26T00:31:28;22.87;;;9.33;;
3771;SDS011;1901;48.172;12.824;2024-02-26T00:33:53;18.33;;;8.90;;
3771;SDS011;1901;48.172;12.824;2024-02-26T00:36:18;27.17;;;9.88;;
3771;SDS011;1901;48.172;12.824;2024-02-26T00:38:43;20.92;;;10.00;;
3771;SDS011;1901;48.172;12.824;2024-02-26T00:41:09;21.45;;;10.65;;
3771;SDS011;1901;48.172;12.824;2024-02-26T00:43:35;25.75;;;11.48;;
3771;SDS011;1901;48.172;12.824;2024-02-26T00:46:00;24.03;;;9.70;;
3771;SDS011;1901;48.172;12.824;2024-02-26T00:48:25;24.13;;;10.80;;
3771;SDS011;1901;48.172;12.824;2024-02-26T00:50:51;20.35;;;9.48;;
3771;SDS011;1901;48.172;12.824;2024-02-26T00:53:16;22.80;;;10.25;;
3771;SDS011;1901;48.172;12.824;2024-02-26T00:55:41;23.23;;;10.23;;
3771;SDS011;1901;48.172;12.824;2024-02-26T00:58:06;23.17;;;9.90;;
3771;SDS011;1901;48.172;12.824;2024-02-26T01:00:32;24.58;;;10.38;;
3771;SDS011;1901;48.172;12.824;2024-02-26T01:02:57;20.30;;;9.57;;
3771;SDS011;1901;48.172;12.824;2024-02-26T01:05:22;20.87;;;9.20;;
3771;SDS011;1901;48.172;12.824;2024-02-26T01:07:47;23.27;;;10.00;;
3771;SDS011;1901;48.172;12.824;2024-02-26T01:10:12;21.97;;;9.93;;
3771;SDS011;1901;48.172;12.824;2024-02-26T01:12:37;20.80;;;8.70;;
3771;SDS011;1901;48.172;12.824;2024-02-26T01:15:03;23.27;;;10.30;;
3771;SDS011;1901;48.172;12.824;2024-02-26T01:17:28;19.55;;;9.57;;
3771;SDS011;1901;48.172;12.824;2024-02-26T01:19:53;23.83;;;10.43;;
3771;SDS011;1901;48.172;12.824;2024-02-26T01:22:19;21.92;;;10.10;;
3771;SDS011;1901;48.172;12.824;2024-02-26T01:24:44;24.37;;;9.67;;
3771;SDS011;1901;48.172;12.824;2024-02-26T01:27:09;24.13;;;10.67;;
3771;SDS011;1901;48.172;12.824;2024-02-26T01:29:34;25.65;;;10.52;;
3771;SDS011;1901;48.172;12.824;2024-02-26T01:32:00;30.20;;;10.83;;
3771;SDS011;1901;48.172;12.824;2024-02-26T01:34:25;25.13;;;10.97;;
3771;SDS011;1901;48.172;12.824;2024-02-26T01:36:50;30.10;;;10.63;;
3771;SDS011;1901;48.172;12.824;2024-02-26T01:39:15;26.80;;;10.53;;
3771;SDS011;1901;48.172;12.824;2024-02-26T01:41:40;25.70;;;11.13;;
3771;SDS011;1901;48.172;12.824;2024-02-26T01:44:06;25.10;;;10.52;;
3771;SDS011;1901;48.172;12.824;2024-02-26T01:46:31;24.83;;;9.80;;
3771;SDS011;1901;48.172;12.824;2024-02-26T01:48:58;28.30;;;11.65;;
3771;SDS011;1901;48.172;12.824;2024-02-26T01:51:23;24.15;;;10.25;;
3771;SDS011;1901;48.172;12.824;2024-02-26T01:53:48;23.67;;;11.10;;
3771;SDS011;1901;48.172;12.824;2024-02-26T01:56:14;27.20;;;11.23;;
3771;SDS011;1901;48.172;12.824;2024-02-26T01:58:39;21.90;;;9.90;;
3771;SDS011;1901;48.172;12.824;2024-02-26T02:01:05;23.20;;;10.27;;
3771;SDS011;1901;48.172;12.824;2024-02-26T02:03:30;26.27;;;10.87;;
3771;SDS011;1901;48.172;12.824;2024-02-26T02:05:56;24.77;;;10.73;;
3771;SDS011;1901;48.172;12.824;2024-02-26T02:08:21;24.60;;;11.27;;
3771;SDS011;1901;48.172;12.824;2024-02-26T02:10:47;27.15;;;11.32;;
3771;SDS011;1901;48.172;12.824;2024-02-26T02:13:14;26.77;;;10.60;;
3771;SDS011;1901;48.172;12.824;2024-02-26T02:15:39;25.50;;;11.30;;
3771;SDS011;1901;48.172;12.824;2024-02-26T02:18:04;25.02;;;10.88;;
3771;SDS011;1901;48.172;12.824;2024-02-26T02:20:33;26.30;;;11.65;;
3771;SDS011;1901;48.172;12.824;2024-02-26T02:22:58;24.27;;;10.02;;
3771;SDS011;1901;48.172;12.824;2024-02-26T02:25:24;21.47;;;9.47;;
3771;SDS011;1901;48.172;12.824;2024-02-26T02:27:49;21.87;;;9.87;;
3771;SDS011;1901;48.172;12.824;2024-02-26T02:30:15;21.42;;;10.05;;
3771;SDS011;1901;48.172;12.824;2024-02-26T02:32:41;22.85;;;9.93;;
3771;SDS011;1901;48.172;12.824;2024-02-26T02:35:07;25.90;;;11.10;;
3771;SDS011;1901;48.172;12.824;2024-02-26T02:37:32;23.25;;;9.73;;
3771;SDS011;1901;48.172;12.824;2024-02-26T02:39:57;27.30;;;10.47;;
3771;SDS011;1901;48.172;12.824;2024-02-26T02:42:23;25.20;;;11.13;;
3771;SDS011;1901;48.172;12.824;2024-02-26T02:44:48;23.63;;;10.18;;
3771;SDS011;1901;48.172;12.824;2024-02-26T02:47:13;24.83;;;10.67;;
3771;SDS011;1901;48.172;12.824;2024-02-26T02:49:38;26.33;;;10.60;;
3771;SDS011;1901;48.172;12.824;2024-02-26T02:52:04;30.17;;;11.53;;
3771;SDS011;1901;48.172;12.824;2024-02-26T02:54:29;24.13;;;10.63;;
3771;SDS011;1901;48.172;12.824;2024-02-26T02:56:54;28.58;;;10.80;;
3771;SDS011;1901;48.172;12.824;2024-02-26T02:59:19;22.30;;;10.07;;
3771;SDS011;1901;48.172;12.824;2024-02-26T03:01:44;25.80;;;11.30;;
3771;SDS011;1901;48.172;12.824;2024-02-26T03:04:09;22.53;;;10.70;;
3771;SDS011;1901;48.172;12.824;2024-02-26T03:06:35;29.37;;;10.93;;
3771;SDS011;1901;48.172;12.824;2024-02-26T03:09:00;25.37;;;10.60;;
3771;SDS011;1901;48.172;12.824;2024-02-26T03:11:26;26.70;;;10.60;;
3771;SDS011;1901;48.172;12.824;2024-02-26T03:13:51;24.77;;;11.43;;
3771;SDS011;1901;48.172;12.824;2024-02-26T03:16:16;26.10;;;11.07;;
3771;SDS011;1901;48.172;12.824;2024-02-26T03:18:42;29.75;;;10.73;;
3771;SDS011;1901;48.172;12.824;2024-02-26T03:21:07;29.42;;;10.32;;
3771;SDS011;1901;48.172;12.824;2024-02-26T03:23:32;27.90;;;11.83;;
3771;SDS011;1901;48.172;12.824;2024-02-26T03:26:01;24.27;;;9.73;;
3771;SDS011;1901;48.172;12.824;2024-02-26T03:28:26;26.73;;;9.53;;
3771;SDS011;1901;48.172;12.824;2024-02-26T03:30:51;24.53;;;10.17;;
3771;SDS011;1901;48.172;12.824;2024-02-26T03:33:16;28.40;;;10.27;;
3771;SDS011;1901;48.172;12.824;2024-02-26T03:35:41;26.40;;;9.47;;
3771;SDS011;1901;48.172;12.824;2024-02-26T03:38:07;23.27;;;11.00;;
3771;SDS011;1901;48.172;12.824;2024-02-26T03:40:32;27.53;;;10.13;;
3771;SDS011;1901;48.172;12.824;2024-02-26T03:42:57;25.55;;;11.70;;
3771;SDS011;1901;48.172;12.824;2024-02-26T03:45:23;22.77;;;10.63;;
3771;SDS011;1901;48.172;12.824;2024-02-26T03:47:48;22.60;;;9.60;;
3771;SDS011;1901;48.172;12.824;2024-02-26T03:50:13;21.33;;;9.57;;
3771;SDS011;1901;48.172;12.824;2024-02-26T03:52:38;20.43;;;8.40;;
3771;SDS011;1901;48.172;12.824;2024-02-26T03:55:03;23.77;;;10.77;;
3771;SDS011;1901;48.172;12.824;2024-02-26T03:57:29;22.65;;;8.52;;
3771;SDS011;1901;48.172;12.824;2024-02-26T03:59:54;27.10;;;10.57;;
3771;SDS011;1901;48.172;12.824;2024-02-26T04:02:19;21.97;;;9.63;;
3771;SDS011;1901;48.172;12.824;2024-02-26T04:04:45;26.63;;;10.20;;
3771;SDS011;1901;48.172;12.824;2024-02-26T04:07:10;26.98;;;10.43;;
3771;SDS011;1901;48.172;12.824;2024-02-26T04:09:36;23.77;;;9.68;;
3771;SDS011;1901;48.172;12.824;2024-02-26T04:12:01;18.13;;;8.77;;
3771;SDS011;1901;48.172;12.824;2024-02-26T04:14:26;23.57;;;10.47;;
3771;SDS011;1901;48.172;12.824;2024-02-26T04:16:51;24.52;;;10.73;;
3771;SDS011;1901;48.172;12.824;2024-02-26T04:19:19;19.88;;;8.35;;
3771;SDS011;1901;48.172;12.824;2024-02-26T04:21:45;20.53;;;8.90;;
3771;SDS011;1901;48.172;12.824;2024-02-26T04:24:10;22.08;;;10.80;;
3771;SDS011;1901;48.172;12.824;2024-02-26T04:26:35;21.15;;;9.18;;
3771;SDS011;1901;48.172;12.824;2024-02-26T04:29:00;22.97;;;10.10;;
3771;SDS011;1901;48.172;12.824;2024-02-26T04:31:25;22.42;;;9.07;;
3771;SDS011;1901;48.172;12.824;2024-02-26T04:33:51;19.42;;;9.13;;
3771;SDS011;1901;48.172;12.824;2024-02-26T04:36:16;20.97;;;9.27;;
3771;SDS011;1901;48.172;12.824;2024-02-26T04:38:42;22.58;;;9.38;;
3771;SDS011;1901;48.172;12.824;2024-02-26T04:41:07;21.65;;;8.50;;
3771;SDS011;1901;48.172;12.824;2024-02-26T04:43:32;21.50;;;8.80;;
3771;SDS011;1901;48.172;12.824;2024-02-26T04:45:57;21.35;;;8.15;;
3771;SDS011;1901;48.172;12.824;2024-02-26T04:48:23;19.73;;;8.77;;
3771;SDS011;1901;48.172;12.824;2024-02-26T04:50:48;18.13;;;8.20;;
3771;SDS011;1901;48.172;12.824;2024-02-26T04:53:13;17.53;;;8.47;;
3771;SDS011;1901;48.172;12.824;2024-02-26T04:55:38;21.08;;;8.70;;
3771;SDS011;1901;48.172;12.824;2024-02-26T04:58:04;17.07;;;7.50;;
3771;SDS011;1901;48.172;12.824;2024-02-26T05:00:29;17.13;;;7.70;;
3771;SDS011;1901;48.172;12.824;2024-02-26T05:02:54;18.50;;;7.77;;
3771;SDS011;1901;48.172;12.824;2024-02-26T05:05:19;14.15;;;6.78;;
3771;SDS011;1901;48.172;12.824;2024-02-26T05:07:44;18.50;;;7.17;;
3771;SDS011;1901;48.172;12.824;2024-02-26T05:10:10;15.05;;;7.35;;
3771;SDS011;1901;48.172;12.824;2024-02-26T05:12:35;14.27;;;6.95;;
3771;SDS011;1901;48.172;12.824;2024-02-26T05:15:01;15.20;;;7.33;;
3771;SDS011;1901;48.172;12.824;2024-02-26T05:17:26;14.40;;;7.32;;
3771;SDS011;1901;48.172;12.824;2024-02-26T05:19:52;16.20;;;6.83;;
3771;SDS011;1901;48.172;12.824;2024-02-26T05:22:17;13.80;;;6.73;;
3771;SDS011;1901;48.172;12.824;2024-02-26T05:24:42;18.45;;;7.97;;
3771;SDS011;1901;48.172;12.824;2024-02-26T05:27:07;18.63;;;6.83;;
3771;SDS011;1901;48.172;12.824;2024-02-26T05:29:32;13.67;;;6.30;;
3771;SDS011;1901;48.172;12.824;2024-02-26T05:31:58;15.00;;;6.05;;
3771;SDS011;1901;48.172;12.824;2024-02-26T05:34:23;12.00;;;5.83;;
3771;SDS011;1901;48.172;12.824;2024-02-26T05:36:48;16.47;;;6.50;;
3771;SDS011;1901;48.172;12.824;2024-02-26T05:39:13;17.83;;;6.47;;
3771;SDS011;1901;48.172;12.824;2024-02-26T05:41:38;16.20;;;6.90;;
3771;SDS011;1901;48.172;12.824;2024-02-26T05:44:03;16.48;;;6.97;;
3771;SDS011;1901;48.172;12.824;2024-02-26T05:46:28;11.60;;;5.90;;
3771;SDS011;1901;48.172;12.824;2024-02-26T05:48:54;14.63;;;6.60;;
3771;SDS011;1901;48.172;12.824;2024-02-26T05:51:19;17.55;;;6.85;;
3771;SDS011;1901;48.172;12.824;2024-02-26T05:53:44;15.77;;;6.88;;
3771;SDS011;1901;48.172;12.824;2024-02-26T05:56:10;15.02;;;7.90;;
3771;SDS011;1901;48.172;12.824;2024-02-26T05:58:35;14.07;;;6.97;;
3771;SDS011;1901;48.172;12.824;2024-02-26T06:01:00;14.83;;;7.37;;
3771;SDS011;1901;48.172;12.824;2024-02-26T06:03:26;12.25;;;5.53;;
3771;SDS011;1901;48.172;12.824;2024-02-26T06:05:51;14.82;;;6.57;;
3771;SDS011;1901;48.172;12.824;2024-02-26T06:08:16;13.15;;;6.53;;
3771;SDS011;1901;48.172;12.824;2024-02-26T06:10:41;14.40;;;6.87;;
3771;SDS011;1901;48.172;12.824;2024-02-26T06:13:07;12.63;;;6.33;;
3771;SDS011;1901;48.172;12.824;2024-02-26T06:15:32;12.70;;;6.00;;
3771;SDS011;1901;48.172;12.824;2024-02-26T06:17:57;14.50;;;6.10;;
3771;SDS011;1901;48.172;12.824;2024-02-26T06:20:22;10.40;;;5.00;;
3771;SDS011;1901;48.172;12.824;2024-02-26T06:22:47;10.43;;;4.85;;
3771;SDS011;1901;48.172;12.824;2024-02-26T06:25:12;10.13;;;5.50;;
3771;SDS011;1901;48.172;12.824;2024-02-26T06:27:38;10.17;;;5.37;;
3771;SDS011;1901;48.172;12.824;2024-02-26T06:30:03;10.00;;;5.30;;
3771;SDS011;1901;48.172;12.824;2024-02-26T06:32:28;10.23;;;5.13;;
3771;SDS011;1901;48.172;12.824;2024-02-26T06:34:54;9.30;;;5.10;;
3771;SDS011;1901;48.172;12.824;2024-02-26T06:37:19;11.30;;;4.97;;
3771;SDS011;1901;48.172;12.824;2024-02-26T06:39:45;10.68;;;4.88;;
3771;SDS011;1901;48.172;12.824;2024-02-26T06:42:10;9.90;;;5.00;;
3771;SDS011;1901;48.172;12.824;2024-02-26T06:44:35;10.73;;;5.57;;
3771;SDS011;1901;48.172;12.824;2024-02-26T06:47:00;12.53;;;5.63;;
3771;SDS011;1901;48.172;12.824;2024-02-26T06:49:26;6.85;;;3.67;;
3771;SDS011;1901;48.172;12.824;2024-02-26T06:51:51;8.82;;;5.05;;
3771;SDS011;1901;48.172;12.824;2024-02-26T06:54:16;10.02;;;5.05;;
3771;SDS011;1901;48.172;12.824;2024-02-26T06:56:41;9.80;;;4.95;;
3771;SDS011;1901;48.172;12.824;2024-02-26T06:59:07;8.25;;;3.92;;
3771;SDS011;1901;48.172;12.824;2024-02-26T07:01:32;7.77;;;3.77;;
3771;SDS011;1901;48.172;12.824;2024-02-26T07:03:57;6.87;;;4.17;;
3771;SDS011;1901;48.172;12.824;2024-02-26T07:06:22;6.67;;;3.53;;
3771;SDS011;1901;48.172;12.824;2024-02-26T07:08:47;7.20;;;3.33;;
3771;SDS011;1901;48.172;12.824;2024-02-26T07:11:12;6.73;;;3.73;;
3771;SDS011;1901;48.172;12.824;2024-02-26T07:13:38;6.80;;;3.67;;
3771;SDS011;1901;48.172;12.824;2024-02-26T07:16:03;8.52;;;3.50;;
3771;SDS011;1901;48.172;12.824;2024-02-26T07:18:28;5.85;;;3.33;;
3771;SDS011;1901;48.172;12.824;2024-02-26T07:20:54;6.00;;;3.33;;
3771;SDS011;1901;48.172;12.824;2024-02-26T07:23:19;6.47;;;3.63;;
3771;SDS011;1901;48.172;12.824;2024-02-26T07:25:44;7.00;;;3.33;;
3771;SDS011;1901;48.172;12.824;2024-02-26T07:28:11;6.30;;;3.20;;
3771;SDS011;1901;48.172;12.824;2024-02-26T07:30:36;6.43;;;3.40;;
3771;SDS011;1901;48.172;12.824;2024-02-26T07:33:02;6.82;;;4.20;;
3771;SDS011;1901;48.172;12.824;2024-02-26T07:35:28;7.53;;;3.80;;
3771;SDS011;1901;48.172;12.824;2024-02-26T07:37:53;7.33;;;4.10;;
3771;SDS011;1901;48.172;12.824;2024-02-26T07:40:18;6.20;;;3.38;;
3771;SDS011;1901;48.172;12.824;2024-02-26T07:42:43;7.43;;;4.27;;
3771;SDS011;1901;48.172;12.824;2024-02-26T07:45:09;9.37;;;4.10;;
3771;SDS011;1901;48.172;12.824;2024-02-26T07:47:34;6.55;;;4.10;;
3771;SDS011;1901;48.172;12.824;2024-02-26T07:50:00;8.20;;;4.60;;
3771;SDS011;1901;48.172;12.824;2024-02-26T07:52:26;8.32;;;4.28;;
3771;SDS011;1901;48.172;12.824;2024-02-26T07:54:51;11.87;;;5.57;;
3771;SDS011;1901;48.172;12.824;2024-02-26T07:57:16;6.80;;;3.72;;
3771;SDS011;1901;48.172;12.824;2024-02-26T07:59:42;6.82;;;3.95;;
3771;SDS011;1901;48.172;12.824;2024-02-26T08:02:07;7.13;;;3.25;;
3771;SDS011;1901;48.172;12.824;2024-02-26T08:04:32;6.63;;;3.50;;
3771;SDS011;1901;48.172;12.824;2024-02-26T08:06:58;5.27;;;2.77;;
3771;SDS011;1901;48.172;12.824;2024-02-26T08:09:23;7.37;;;3.80;;
3771;SDS011;1901;48.172;12.824;2024-02-26T08:11:48;6.77;;;3.50;;
3771;SDS011;1901;48.172;12.824;2024-02-26T08:14:13;6.30;;;3.10;;
3771;SDS011;1901;48.172;12.824;2024-02-26T08:16:38;5.35;;;3.17;;
3771;SDS011;1901;48.172;12.824;2024-02-26T08:19:04;9.00;;;3.30;;
3771;SDS011;1901;48.172;12.824;2024-02-26T08:21:29;5.03;;;3.40;;
3771;SDS011;1901;48.172;12.824;2024-02-26T08:23:54;6.83;;;3.63;;
3771;SDS011;1901;48.172;12.824;2024-02-26T08:26:19;7.15;;;3.90;;
3771;SDS011;1901;48.172;12.824;2024-02-26T08:28:45;9.48;;;3.90;;
3771;SDS011;1901;48.172;12.824;2024-02-26T08:31:12;6.72;;;4.00;;
3771;SDS011;1901;48.172;12.824;2024-02-26T08:33:38;7.78;;;4.40;;
3771;SDS011;1901;48.172;12.824;2024-02-26T08:36:04;5.80;;;4.13;;
3771;SDS011;1901;48.172;12.824;2024-02-26T08:38:29;5.38;;;3.25;;
3771;SDS011;1901;48.172;12.824;2024-02-26T08:40:54;6.17;;;3.53;;
3771;SDS011;1901;48.172;12.824;2024-02-26T08:43:19;4.82;;;3.50;;
3771;SDS011;1901;48.172;12.824;2024-02-26T08:45:44;5.77;;;3.30;;
3771;SDS011;1901;48.172;12.824;2024-02-26T08:48:10;4.33;;;2.67;;
3771;SDS011;1901;48.172;12.824;2024-02-26T08:50:35;3.83;;;2.70;;
3771;SDS011;1901;48.172;12.824;2024-02-26T08:53:00;5.13;;;2.95;;
3771;SDS011;1901;48.172;12.824;2024-02-26T08:55:26;6.28;;;3.65;;
3771;SDS011;1901;48.172;12.824;2024-02-26T08:57:51;6.85;;;4.05;;
3771;SDS011;1901;48.172;12.824;2024-02-26T09:00:16;5.32;;;3.17;;
3771;SDS011;1901;48.172;12.824;2024-02-26T09:02:42;7.38;;;3.65;;
3771;SDS011;1901;48.172;12.824;2024-02-26T09:05:09;5.80;;;3.13;;
3771;SDS011;1901;48.172;12.824;2024-02-26T09:07:35;6.22;;;3.53;;
3771;SDS011;1901;48.172;12.824;2024-02-26T09:10:00;5.87;;;3.00;;
3771;SDS011;1901;48.172;12.824;2024-02-26T09:12:25;7.97;;;3.83;;
3771;SDS011;1901;48.172;12.824;2024-02-26T09:14:50;9.27;;;4.70;;
3771;SDS011;1901;48.172;12.824;2024-02-26T09:17:15;10.43;;;4.97;;
3771;SDS011;1901;48.172;12.824;2024-02-26T09:19:40;6.67;;;4.10;;
3771;SDS011;1901;48.172;12.824;2024-02-26T09:22:07;8.65;;;3.72;;
3771;SDS011;1901;48.172;12.824;2024-02-26T09:24:32;6.43;;;3.40;;
3771;SDS011;1901;48.172;12.824;2024-02-26T09:26:57;6.93;;;4.03;;
3771;SDS011;1901;48.172;12.824;2024-02-26T09:29:23;7.43;;;4.77;;
3771;SDS011;1901;48.172;12.824;2024-02-26T09:31:48;6.23;;;4.13;;
3771;SDS011;1901;48.172;12.824;2024-02-26T09:34:13;6.85;;;4.53;;
3771;SDS011;1901;48.172;12.824;2024-02-26T09:36:39;8.55;;;4.10;;
3771;SDS011;1901;48.172;12.824;2024-02-26T09:39:04;11.23;;;5.43;;
3771;SDS011;1901;48.172;12.824;2024-02-26T09:41:30;7.82;;;3.78;;
3771;SDS011;1901;48.172;12.824;2024-02-26T09:43:56;5.32;;;3.30;;
3771;SDS011;1901;48.172;12.824;2024-02-26T09:46:21;7.40;;;3.03;;
3771;SDS011;1901;48.172;12.824;2024-02-26T09:48:46;9.43;;;3.40;;
3771;SDS011;1901;48.172;12.824;2024-02-26T09:51:12;5.85;;;3.00;;
3771;SDS011;1901;48.172;12.824;2024-02-26T09:53:37;5.43;;;3.28;;
3771;SDS011;1901;48.172;12.824;2024-02-26T09:56:05;10.77;;;3.28;;
3771;SDS011;1901;48.172;12.824;2024-02-26T09:58:31;7.13;;;3.00;;
3771;SDS011;1901;48.172;12.824;2024-02-26T10:00:56;5.07;;;2.90;;
3771;SDS011;1901;48.172;12.824;2024-02-26T10:03:25;4.75;;;2.63;;
3771;SDS011;1901;48.172;12.824;2024-02-26T10:05:53;5.45;;;3.40;;
3771;SDS011;1901;48.172;12.824;2024-02-26T10:08:20;7.78;;;3.15;;
3771;SDS011;1901;48.172;12.824;2024-02-26T10:10:47;6.75;;;3.72;;
3771;SDS011;1901;48.172;12.824;2024-02-26T10:13:12;5.23;;;2.80;;
3771;SDS011;1901;48.172;12.824;2024-02-26T10:15:37;5.67;;;2.87;;
3771;SDS011;1901;48.172;12.824;2024-02-26T10:18:05;5.73;;;3.23;;
3771;SDS011;1901;48.172;12.824;2024-02-26T10:20:31;10.07;;;5.72;;
3771;SDS011;1901;48.172;12.824;2024-02-26T10:22:56;8.50;;;4.25;;
3771;SDS011;1901;48.172;12.824;2024-02-26T10:25:22;8.93;;;4.77;;
3771;SDS011;1901;48.172;12.824;2024-02-26T10:27:47;13.63;;;6.50;;
3771;SDS011;1901;48.172;12.824;2024-02-26T10:32:44;12.63;;;5.25;;
3771;SDS011;1901;48.172;12.824;2024-02-26T10:35:09;8.80;;;3.95;;
3771;SDS011;1901;48.172;12.824;2024-02-26T10:37:34;10.37;;;4.37;;
3771;SDS011;1901;48.172;12.824;2024-02-26T10:39:59;7.17;;;4.43;;
3771;SDS011;1901;48.172;12.824;2024-02-26T10:42:25;10.10;;;4.35;;
3771;SDS011;1901;48.172;12.824;2024-02-26T10:44:50;9.90;;;4.28;;
3771;SDS011;1901;48.172;12.824;2024-02-26T10:47:15;8.48;;;4.18;;
3771;SDS011;1901;48.172;12.824;2024-02-26T10:49:45;8.68;;;3.97;;
3771;SDS011;1901;48.172;12.824;2024-02-26T10:52:10;11.57;;;4.82;;
3771;SDS011;1901;48.172;12.824;2024-02-26T10:54:35;10.38;;;4.60;;
3771;SDS011;1901;48.172;12.824;2024-02-26T10:57:03;5.25;;;3.20;;
3771;SDS011;1901;48.172;12.824;2024-02-26T10:59:30;9.10;;;3.38;;
3771;SDS011;1901;48.172;12.824;2024-02-26T11:01:57;4.47;;;3.03;;
3771;SDS011;1901;48.172;12.824;2024-02-26T11:04:23;8.80;;;5.22;;
3771;SDS011;1901;48.172;12.824;2024-02-26T11:06:52;4.40;;;2.78;;
3771;SDS011;1901;48.172;12.824;2024-02-26T11:09:20;9.27;;;3.53;;
3771;SDS011;1901;48.172;12.824;2024-02-26T11:11:45;5.35;;;2.40;;
3771;SDS011;1901;48.172;12.824;2024-02-26T11:14:11;6.30;;;2.38;;
3771;SDS011;1901;48.172;12.824;2024-02-26T11:16:38;5.25;;;2.67;;
3771;SDS011;1901;48.172;12.824;2024-02-26T11:19:04;5.90;;;3.40;;
3771;SDS011;1901;48.172;12.824;2024-02-26T11:21:31;12.73;;;5.88;;
3771;SDS011;1901;48.172;12.824;2024-02-26T11:24:03;7.45;;;3.30;;
3771;SDS011;1901;48.172;12.824;2024-02-26T11:26:29;9.13;;;6.13;;
3771;SDS011;1901;48.172;12.824;2024-02-26T11:28:54;5.05;;;2.70;;
3771;SDS011;1901;48.172;12.824;2024-02-26T11:31:20;6.03;;;3.00;;
3771;SDS011;1901;48.172;12.824;2024-02-26T11:33:51;6.75;;;3.38;;
3771;SDS011;1901;48.172;12.824;2024-02-26T11:36:17;5.78;;;2.80;;
3771;SDS011;1901;48.172;12.824;2024-02-26T11:38:43;7.72;;;3.05;;
3771;SDS011;1901;48.172;12.824;2024-02-26T11:41:08;6.35;;;3.13;;
3771;SDS011;1901;48.172;12.824;2024-02-26T11:43:49;4.78;;;2.17;;
3771;SDS011;1901;48.172;12.824;2024-02-26T11:48:54;4.18;;;2.38;;
3771;SDS011;1901;48.172;12.824;2024-02-26T11:51:23;4.32;;;1.98;;
3771;SDS011;1901;48.172;12.824;2024-02-26T11:53:49;5.65;;;2.17;;
3771;SDS011;1901;48.172;12.824;2024-02-26T11:58:46;5.45;;;2.22;;
3771;SDS011;1901;48.172;12.824;2024-02-26T12:03:56;7.38;;;3.25;;
3771;SDS011;1901;48.172;12.824;2024-02-26T12:06:21;6.28;;;2.50;;
3771;SDS011;1901;48.172;12.824;2024-02-26T12:08:46;4.23;;;2.13;;
3771;SDS011;1901;48.172;12.824;2024-02-26T12:11:15;5.10;;;3.27;;
3771;SDS011;1901;48.172;12.824;2024-02-26T12:13:41;6.05;;;3.30;;
3771;SDS011;1901;48.172;12.824;2024-02-26T12:16:06;4.73;;;2.90;;
3771;SDS011;1901;48.172;12.824;2024-02-26T12:18:31;7.77;;;2.50;;
3771;SDS011;1901;48.172;12.824;2024-02-26T12:21:00;4.03;;;2.37;;
3771;SDS011;1901;48.172;12.824;2024-02-26T12:23:26;4.80;;;3.33;;
3771;SDS011;1901;48.172;12.824;2024-02-26T12:25:52;5.30;;;3.47;;
3771;SDS011;1901;48.172;12.824;2024-02-26T12:28:17;5.90;;;3.05;;
3771;SDS011;1901;48.172;12.824;2024-02-26T12:30:42;5.77;;;3.43;;
3771;SDS011;1901;48.172;12.824;2024-02-26T12:33:07;9.07;;;5.13;;
3771;SDS011;1901;48.172;12.824;2024-02-26T12:35:33;10.90;;;5.22;;
3771;SDS011;1901;48.172;12.824;2024-02-26T12:37:59;3.85;;;2.47;;
3771;SDS011;1901;48.172;12.824;2024-02-26T12:40:25;3.95;;;2.38;;
3771;SDS011;1901;48.172;12.824;2024-02-26T12:42:51;6.43;;;3.08;;
3771;SDS011;1901;48.172;12.824;2024-02-26T12:45:18;4.63;;;2.55;;
3771;SDS011;1901;48.172;12.824;2024-02-26T12:47:44;4.95;;;2.78;;
3771;SDS011;1901;48.172;12.824;2024-02-26T12:52:41;8.68;;;4.20;;
3771;SDS011;1901;48.172;12.824;2024-02-26T12:55:07;5.13;;;2.75;;
3771;SDS011;1901;48.172;12.824;2024-02-26T12:57:36;6.22;;;3.58;;
3771;SDS011;1901;48.172;12.824;2024-02-26T13:00:02;5.90;;;2.33;;
3771;SDS011;1901;48.172;12.824;2024-02-26T13:02:28;6.07;;;2.50;;
3771;SDS011;1901;48.172;12.824;2024-02-26T13:04:54;3.00;;;2.17;;
3771;SDS011;1901;48.172;12.824;2024-02-26T13:07:20;5.05;;;2.10;;
3771;SDS011;1901;48.172;12.824;2024-02-26T13:09:45;4.53;;;2.55;;
3771;SDS011;1901;48.172;12.824;2024-02-26T13:12:10;4.90;;;2.88;;
3771;SDS011;1901;48.172;12.824;2024-02-26T13:14:37;7.45;;;3.75;;
3771;SDS011;1901;48.172;12.824;2024-02-26T13:17:03;3.17;;;2.27;;
3771;SDS011;1901;48.172;12.824;2024-02-26T13:19:29;3.97;;;2.08;;
3771;SDS011;1901;48.172;12.824;2024-02-26T13:21:54;7.43;;;2.63;;
3771;SDS011;1901;48.172;12.824;2024-02-26T13:24:20;6.68;;;2.20;;
3771;SDS011;1901;48.172;12.824;2024-02-26T13:26:45;3.83;;;1.87;;
3771;SDS011;1901;48.172;12.824;2024-02-26T13:29:20;7.90;;;2.23;;
3771;SDS011;1901;48.172;12.824;2024-02-26T13:31:45;3.95;;;2.50;;
3771;SDS011;1901;48.172;12.824;2024-02-26T13:34:11;8.77;;;4.15;;
3771;SDS011;1901;48.172;12.824;2024-02-26T13:36:36;5.93;;;3.40;;
3771;SDS011;1901;48.172;12.824;2024-02-26T13:39:01;5.53;;;2.60;;
3771;SDS011;1901;48.172;12.824;2024-02-26T13:41:29;4.72;;;2.65;;
3771;SDS011;1901;48.172;12.824;2024-02-26T13:43:55;4.07;;;1.83;;
3771;SDS011;1901;48.172;12.824;2024-02-26T13:46:20;3.30;;;1.47;;
3771;SDS011;1901;48.172;12.824;2024-02-26T13:48:45;1.70;;;1.00;;
3771;SDS011;1901;48.172;12.824;2024-02-26T13:51:10;6.93;;;1.90;;
3771;SDS011;1901;48.172;12.824;2024-02-26T13:53:35;3.55;;;1.60;;
3771;SDS011;1901;48.172;12.824;2024-02-26T13:56:01;2.20;;;1.50;;
3771;SDS011;1901;48.172;12.824;2024-02-26T13:58:27;4.70;;;1.65;;
3771;SDS011;1901;48.172;12.824;2024-02-26T14:00:52;3.67;;;1.73;;
3771;SDS011;1901;48.172;12.824;2024-02-26T14:03:18;4.30;;;1.65;;
3771;SDS011;1901;48.172;12.824;2024-02-26T14:05:44;12.88;;;5.55;;
3771;SDS011;1901;48.172;12.824;2024-02-26T14:08:09;2.90;;;1.60;;
3771;SDS011;1901;48.172;12.824;2024-02-26T14:10:34;3.13;;;1.10;;
3771;SDS011;1901;48.172;12.824;2024-02-26T14:13:00;3.25;;;1.40;;
3771;SDS011;1901;48.172;12.824;2024-02-26T14:15:25;3.00;;;1.30;;
3771;SDS011;1901;48.172;12.824;2024-02-26T14:17:53;2.67;;;1.30;;
3771;SDS011;1901;48.172;12.824;2024-02-26T14:20:22;2.53;;;1.85;;
3771;SDS011;1901;48.172;12.824;2024-02-26T14:22:48;3.00;;;1.30;;
3771;SDS011;1901;48.172;12.824;2024-02-26T14:25:13;2.25;;;0.82;;
3771;SDS011;1901;48.172;12.824;2024-02-26T14:27:38;2.97;;;1.20;;
3771;SDS011;1901;48.172;12.824;2024-02-26T14:30:03;3.70;;;1.50;;
3771;SDS011;1901;48.172;12.824;2024-02-26T14:32:29;4.60;;;2.67;;
3771;SDS011;1901;48.172;12.824;2024-02-26T14:34:56;2.43;;;1.30;;
3771;SDS011;1901;48.172;12.824;2024-02-26T14:37:21;2.30;;;1.08;;
3771;SDS011;1901;48.172;12.824;2024-02-26T14:39:46;2.75;;;1.10;;
3771;SDS011;1901;48.172;12.824;2024-02-26T14:42:13;4.35;;;1.65;;
3771;SDS011;1901;48.172;12.824;2024-02-26T14:44:42;2.78;;;1.05;;
3771;SDS011;1901;48.172;12.824;2024-02-26T14:47:07;4.00;;;1.47;;
3771;SDS011;1901;48.172;12.824;2024-02-26T14:49:32;5.70;;;2.13;;
3771;SDS011;1901;48.172;12.824;2024-02-26T14:51:59;2.03;;;1.10;;
3771;SDS011;1901;48.172;12.824;2024-02-26T14:54:24;1.93;;;1.10;;